sensor_id;sensor_type;location;lat;lon;timestamp;P1;durP1;ratioP1;P2;durP2;ratioP2
69434;SDS011;56625;54.322;18.582;2022-10-31T00:01:25;16.80;;;8.40;;
69434;SDS011;56625;54.322;18.582;2022-10-31T00:03:53;18.80;;;9.30;;
69434;SDS011;56625;54.322;18.582;2022-10-31T00:06:21;23.30;;;10.70;;
69434;SDS011;56625;54.322;18.582;2022-10-31T00:08:53;19.10;;;9.50;;
69434;SDS011;56625;54.322;18.582;2022-10-31T00:11:22;19.40;;;9.30;;
69434;SDS011;56625;54.322;18.582;2022-10-31T00:13:49;21.50;;;10.90;;
69434;SDS011;56625;54.322;18.582;2022-10-31T00:16:17;22.20;;;10.20;;
69434;SDS011;56625;54.322;18.582;2022-10-31T00:18:49;19.90;;;10.10;;
69434;SDS011;56625;54.322;18.582;2022-10-31T00:21:17;22.80;;;11.10;;
69434;SDS011;56625;54.322;18.582;2022-10-31T00:23:44;22.90;;;11.70;;
69434;SDS011;56625;54.322;18.582;2022-10-31T00:26:10;24.60;;;11.70;;
69434;SDS011;56625;54.322;18.582;2022-10-31T00:28:37;22.80;;;10.60;;
69434;SDS011;56625;54.322;18.582;2022-10-31T00:31:06;21.80;;;11.10;;
69434;SDS011;56625;54.322;18.582;2022-10-31T00:33:36;17.60;;;8.60;;
69434;SDS011;56625;54.322;18.582;2022-10-31T00:36:05;18.40;;;9.30;;
69434;SDS011;56625;54.322;18.582;2022-10-31T00:38:33;19.00;;;9.60;;
69434;SDS011;56625;54.322;18.582;2022-10-31T00:40:59;21.40;;;10.40;;
69434;SDS011;56625;54.322;18.582;2022-10-31T00:43:26;21.40;;;9.70;;
69434;SDS011;56625;54.322;18.582;2022-10-31T00:45:52;20.20;;;9.50;;
69434;SDS011;56625;54.322;18.582;2022-10-31T00:48:19;20.00;;;9.90;;
69434;SDS011;56625;54.322;18.582;2022-10-31T00:50:45;22.50;;;11.70;;
69434;SDS011;56625;54.322;18.582;2022-10-31T00:53:12;26.60;;;13.20;;
69434;SDS011;56625;54.322;18.582;2022-10-31T00:55:38;27.90;;;13.60;;
69434;SDS011;56625;54.322;18.582;2022-10-31T00:58:04;25.90;;;12.90;;
69434;SDS011;56625;54.322;18.582;2022-10-31T01:00:31;32.00;;;13.80;;
69434;SDS011;56625;54.322;18.582;2022-10-31T01:02:57;31.50;;;14.40;;
69434;SDS011;56625;54.322;18.582;2022-10-31T01:05:24;22.80;;;11.20;;
69434;SDS011;56625;54.322;18.582;2022-10-31T01:07:51;23.40;;;12.10;;
69434;SDS011;56625;54.322;18.582;2022-10-31T01:10:17;22.50;;;12.10;;
69434;SDS011;56625;54.322;18.582;2022-10-31T01:12:46;29.70;;;13.70;;
69434;SDS011;56625;54.322;18.582;2022-10-31T01:15:20;26.20;;;12.60;;
69434;SDS011;56625;54.322;18.582;2022-10-31T01:17:48;27.10;;;12.80;;
69434;SDS011;56625;54.322;18.582;2022-10-31T01:20:16;28.30;;;12.70;;
69434;SDS011;56625;54.322;18.582;2022-10-31T01:22:42;28.70;;;12.60;;
69434;SDS011;56625;54.322;18.582;2022-10-31T01:25:10;26.50;;;12.50;;
69434;SDS011;56625;54.322;18.582;2022-10-31T01:27:36;26.60;;;12.00;;
69434;SDS011;56625;54.322;18.582;2022-10-31T01:30:04;25.70;;;11.60;;
69434;SDS011;56625;54.322;18.582;2022-10-31T01:32:31;28.60;;;11.40;;
69434;SDS011;56625;54.322;18.582;2022-10-31T01:34:58;29.60;;;12.00;;
69434;SDS011;56625;54.322;18.582;2022-10-31T01:37:24;26.70;;;11.00;;
69434;SDS011;56625;54.322;18.582;2022-10-31T01:39:51;32.40;;;11.80;;
69434;SDS011;56625;54.322;18.582;2022-10-31T01:42:20;33.30;;;11.50;;
69434;SDS011;56625;54.322;18.582;2022-10-31T01:44:59;30.80;;;11.40;;
69434;SDS011;56625;54.322;18.582;2022-10-31T01:47:41;35.20;;;12.60;;
69434;SDS011;56625;54.322;18.582;2022-10-31T01:50:27;36.00;;;12.80;;
69434;SDS011;56625;54.322;18.582;2022-10-31T01:53:00;32.40;;;10.70;;
69434;SDS011;56625;54.322;18.582;2022-10-31T01:55:34;37.20;;;13.10;;
69434;SDS011;56625;54.322;18.582;2022-10-31T01:58:09;32.60;;;11.70;;
69434;SDS011;56625;54.322;18.582;2022-10-31T02:00:42;33.70;;;11.80;;
69434;SDS011;56625;54.322;18.582;2022-10-31T02:03:10;34.70;;;12.30;;
69434;SDS011;56625;54.322;18.582;2022-10-31T02:05:39;31.50;;;12.00;;
69434;SDS011;56625;54.322;18.582;2022-10-31T02:08:28;29.50;;;12.40;;
69434;SDS011;56625;54.322;18.582;2022-10-31T02:10:58;31.10;;;11.30;;
69434;SDS011;56625;54.322;18.582;2022-10-31T02:13:28;32.80;;;12.30;;
69434;SDS011;56625;54.322;18.582;2022-10-31T02:15:57;29.90;;;12.40;;
69434;SDS011;56625;54.322;18.582;2022-10-31T02:18:28;24.50;;;11.10;;
69434;SDS011;56625;54.322;18.582;2022-10-31T02:30:22;26.50;;;11.90;;
69434;SDS011;56625;54.322;18.582;2022-10-31T02:33:06;28.40;;;12.40;;
69434;SDS011;56625;54.322;18.582;2022-10-31T02:35:50;29.90;;;12.50;;
69434;SDS011;56625;54.322;18.582;2022-10-31T02:38:25;27.50;;;12.00;;
69434;SDS011;56625;54.322;18.582;2022-10-31T02:41:30;28.30;;;13.10;;
69434;SDS011;56625;54.322;18.582;2022-10-31T02:47:06;29.00;;;12.90;;
69434;SDS011;56625;54.322;18.582;2022-10-31T02:49:50;28.30;;;13.50;;
69434;SDS011;56625;54.322;18.582;2022-10-31T02:52:33;27.20;;;13.10;;
69434;SDS011;56625;54.322;18.582;2022-10-31T02:57:55;25.80;;;14.10;;
69434;SDS011;56625;54.322;18.582;2022-10-31T03:00:26;27.80;;;14.90;;
69434;SDS011;56625;54.322;18.582;2022-10-31T03:03:19;26.70;;;15.10;;
69434;SDS011;56625;54.322;18.582;2022-10-31T03:06:00;29.50;;;14.60;;
69434;SDS011;56625;54.322;18.582;2022-10-31T03:11:18;32.20;;;14.60;;
69434;SDS011;56625;54.322;18.582;2022-10-31T03:13:57;25.90;;;13.70;;
69434;SDS011;56625;54.322;18.582;2022-10-31T03:16:39;26.40;;;14.60;;
69434;SDS011;56625;54.322;18.582;2022-10-31T03:19:19;23.50;;;12.80;;
69434;SDS011;56625;54.322;18.582;2022-10-31T03:21:58;26.50;;;13.80;;
69434;SDS011;56625;54.322;18.582;2022-10-31T03:24:36;28.10;;;14.50;;
69434;SDS011;56625;54.322;18.582;2022-10-31T03:27:07;27.70;;;14.80;;
69434;SDS011;56625;54.322;18.582;2022-10-31T03:29:38;36.10;;;14.80;;
69434;SDS011;56625;54.322;18.582;2022-10-31T03:32:10;32.90;;;15.10;;
69434;SDS011;56625;54.322;18.582;2022-10-31T03:34:49;39.50;;;17.60;;
69434;SDS011;56625;54.322;18.582;2022-10-31T03:37:20;36.30;;;16.30;;
69434;SDS011;56625;54.322;18.582;2022-10-31T03:39:49;42.10;;;16.80;;
69434;SDS011;56625;54.322;18.582;2022-10-31T03:42:21;42.30;;;15.90;;
69434;SDS011;56625;54.322;18.582;2022-10-31T03:45:27;37.40;;;14.80;;
69434;SDS011;56625;54.322;18.582;2022-10-31T03:47:58;39.60;;;15.40;;
69434;SDS011;56625;54.322;18.582;2022-10-31T03:50:31;35.10;;;15.20;;
69434;SDS011;56625;54.322;18.582;2022-10-31T03:53:13;42.70;;;16.20;;
69434;SDS011;56625;54.322;18.582;2022-10-31T03:55:51;37.70;;;15.10;;
69434;SDS011;56625;54.322;18.582;2022-10-31T03:58:31;37.70;;;14.60;;
69434;SDS011;56625;54.322;18.582;2022-10-31T04:01:05;35.30;;;15.00;;
69434;SDS011;56625;54.322;18.582;2022-10-31T04:03:37;37.90;;;15.80;;
69434;SDS011;56625;54.322;18.582;2022-10-31T04:06:08;38.80;;;15.30;;
69434;SDS011;56625;54.322;18.582;2022-10-31T04:08:43;34.00;;;15.00;;
69434;SDS011;56625;54.322;18.582;2022-10-31T04:11:16;35.40;;;13.90;;
69434;SDS011;56625;54.322;18.582;2022-10-31T04:13:46;34.40;;;14.50;;
69434;SDS011;56625;54.322;18.582;2022-10-31T04:16:15;36.00;;;15.30;;
69434;SDS011;56625;54.322;18.582;2022-10-31T04:18:43;34.00;;;14.20;;
69434;SDS011;56625;54.322;18.582;2022-10-31T04:21:10;33.90;;;14.20;;
69434;SDS011;56625;54.322;18.582;2022-10-31T04:23:36;32.50;;;14.20;;
69434;SDS011;56625;54.322;18.582;2022-10-31T04:26:03;30.50;;;14.50;;
69434;SDS011;56625;54.322;18.582;2022-10-31T04:28:30;32.50;;;14.60;;
69434;SDS011;56625;54.322;18.582;2022-10-31T04:30:56;29.00;;;14.10;;
69434;SDS011;56625;54.322;18.582;2022-10-31T04:33:22;29.70;;;13.50;;
69434;SDS011;56625;54.322;18.582;2022-10-31T04:35:49;28.50;;;13.80;;
69434;SDS011;56625;54.322;18.582;2022-10-31T04:38:15;31.00;;;14.70;;
69434;SDS011;56625;54.322;18.582;2022-10-31T04:40:41;28.90;;;14.10;;
69434;SDS011;56625;54.322;18.582;2022-10-31T04:43:08;29.20;;;12.30;;
69434;SDS011;56625;54.322;18.582;2022-10-31T04:45:34;31.30;;;14.20;;
69434;SDS011;56625;54.322;18.582;2022-10-31T04:48:01;30.50;;;14.20;;
69434;SDS011;56625;54.322;18.582;2022-10-31T04:50:28;33.60;;;14.80;;
69434;SDS011;56625;54.322;18.582;2022-10-31T04:52:54;29.40;;;12.90;;
69434;SDS011;56625;54.322;18.582;2022-10-31T04:55:21;29.20;;;13.40;;
69434;SDS011;56625;54.322;18.582;2022-10-31T04:57:48;32.90;;;14.70;;
69434;SDS011;56625;54.322;18.582;2022-10-31T05:00:19;33.00;;;13.40;;
69434;SDS011;56625;54.322;18.582;2022-10-31T05:02:48;31.50;;;14.80;;
69434;SDS011;56625;54.322;18.582;2022-10-31T05:05:18;30.90;;;13.20;;
69434;SDS011;56625;54.322;18.582;2022-10-31T05:07:47;32.10;;;14.00;;
69434;SDS011;56625;54.322;18.582;2022-10-31T05:10:18;32.70;;;14.80;;
69434;SDS011;56625;54.322;18.582;2022-10-31T05:12:52;39.60;;;15.20;;
69434;SDS011;56625;54.322;18.582;2022-10-31T05:15:21;39.70;;;14.70;;
69434;SDS011;56625;54.322;18.582;2022-10-31T05:17:50;43.50;;;16.00;;
69434;SDS011;56625;54.322;18.582;2022-10-31T05:20:18;40.00;;;16.00;;
69434;SDS011;56625;54.322;18.582;2022-10-31T05:22:48;39.30;;;15.00;;
69434;SDS011;56625;54.322;18.582;2022-10-31T05:25:18;40.70;;;15.40;;
69434;SDS011;56625;54.322;18.582;2022-10-31T05:27:47;39.50;;;15.90;;
69434;SDS011;56625;54.322;18.582;2022-10-31T05:30:21;42.70;;;15.20;;
69434;SDS011;56625;54.322;18.582;2022-10-31T05:32:50;38.90;;;15.60;;
69434;SDS011;56625;54.322;18.582;2022-10-31T05:35:23;42.80;;;14.50;;
69434;SDS011;56625;54.322;18.582;2022-10-31T05:37:51;37.30;;;14.40;;
69434;SDS011;56625;54.322;18.582;2022-10-31T05:40:21;39.90;;;15.20;;
69434;SDS011;56625;54.322;18.582;2022-10-31T05:42:51;40.40;;;15.30;;
69434;SDS011;56625;54.322;18.582;2022-10-31T05:45:19;35.90;;;14.80;;
69434;SDS011;56625;54.322;18.582;2022-10-31T05:47:55;41.00;;;14.90;;
69434;SDS011;56625;54.322;18.582;2022-10-31T05:50:28;34.50;;;14.70;;
69434;SDS011;56625;54.322;18.582;2022-10-31T05:53:01;35.70;;;14.80;;
69434;SDS011;56625;54.322;18.582;2022-10-31T05:55:29;40.30;;;14.40;;
69434;SDS011;56625;54.322;18.582;2022-10-31T05:57:57;34.90;;;14.10;;
69434;SDS011;56625;54.322;18.582;2022-10-31T06:00:25;35.00;;;14.00;;
69434;SDS011;56625;54.322;18.582;2022-10-31T06:02:59;32.50;;;13.40;;
69434;SDS011;56625;54.322;18.582;2022-10-31T06:05:28;30.60;;;13.80;;
69434;SDS011;56625;54.322;18.582;2022-10-31T06:07:56;31.30;;;14.60;;
69434;SDS011;56625;54.322;18.582;2022-10-31T06:10:24;31.20;;;13.30;;
69434;SDS011;56625;54.322;18.582;2022-10-31T06:12:51;34.70;;;14.10;;
69434;SDS011;56625;54.322;18.582;2022-10-31T06:15:18;29.70;;;13.50;;
69434;SDS011;56625;54.322;18.582;2022-10-31T06:18:01;35.90;;;14.30;;
69434;SDS011;56625;54.322;18.582;2022-10-31T06:20:30;33.50;;;14.70;;
69434;SDS011;56625;54.322;18.582;2022-10-31T06:22:57;35.90;;;16.00;;
69434;SDS011;56625;54.322;18.582;2022-10-31T06:25:24;33.70;;;13.50;;
69434;SDS011;56625;54.322;18.582;2022-10-31T06:27:51;29.20;;;12.70;;
69434;SDS011;56625;54.322;18.582;2022-10-31T06:30:17;30.40;;;12.90;;
69434;SDS011;56625;54.322;18.582;2022-10-31T06:32:44;29.20;;;12.40;;
69434;SDS011;56625;54.322;18.582;2022-10-31T06:35:10;32.40;;;14.80;;
69434;SDS011;56625;54.322;18.582;2022-10-31T06:37:37;32.30;;;14.60;;
69434;SDS011;56625;54.322;18.582;2022-10-31T06:40:04;35.00;;;14.10;;
69434;SDS011;56625;54.322;18.582;2022-10-31T06:42:31;33.30;;;14.10;;
69434;SDS011;56625;54.322;18.582;2022-10-31T06:44:57;35.60;;;15.30;;
69434;SDS011;56625;54.322;18.582;2022-10-31T06:47:24;33.30;;;14.10;;
69434;SDS011;56625;54.322;18.582;2022-10-31T06:49:50;33.30;;;14.30;;
69434;SDS011;56625;54.322;18.582;2022-10-31T06:52:16;31.10;;;13.80;;
69434;SDS011;56625;54.322;18.582;2022-10-31T06:54:43;32.70;;;14.20;;
69434;SDS011;56625;54.322;18.582;2022-10-31T06:57:09;31.70;;;12.90;;
69434;SDS011;56625;54.322;18.582;2022-10-31T06:59:36;31.30;;;13.70;;
69434;SDS011;56625;54.322;18.582;2022-10-31T07:02:04;30.50;;;13.60;;
69434;SDS011;56625;54.322;18.582;2022-10-31T07:04:31;30.80;;;13.10;;
69434;SDS011;56625;54.322;18.582;2022-10-31T07:06:57;27.50;;;11.40;;
69434;SDS011;56625;54.322;18.582;2022-10-31T07:09:24;30.60;;;12.60;;
69434;SDS011;56625;54.322;18.582;2022-10-31T07:11:54;34.60;;;12.10;;
69434;SDS011;56625;54.322;18.582;2022-10-31T07:14:21;36.90;;;13.50;;
69434;SDS011;56625;54.322;18.582;2022-10-31T07:16:50;38.40;;;16.40;;
69434;SDS011;56625;54.322;18.582;2022-10-31T07:19:17;33.00;;;13.70;;
69434;SDS011;56625;54.322;18.582;2022-10-31T07:21:44;31.00;;;13.50;;
69434;SDS011;56625;54.322;18.582;2022-10-31T07:24:10;30.90;;;13.40;;
69434;SDS011;56625;54.322;18.582;2022-10-31T07:26:36;28.00;;;13.30;;
69434;SDS011;56625;54.322;18.582;2022-10-31T07:29:03;24.60;;;12.00;;
69434;SDS011;56625;54.322;18.582;2022-10-31T07:31:29;30.30;;;14.30;;
69434;SDS011;56625;54.322;18.582;2022-10-31T07:33:56;29.40;;;12.30;;
69434;SDS011;56625;54.322;18.582;2022-10-31T07:36:22;29.50;;;14.20;;
69434;SDS011;56625;54.322;18.582;2022-10-31T07:38:49;28.30;;;11.80;;
69434;SDS011;56625;54.322;18.582;2022-10-31T07:41:15;24.80;;;11.80;;
69434;SDS011;56625;54.322;18.582;2022-10-31T07:43:42;30.00;;;12.70;;
69434;SDS011;56625;54.322;18.582;2022-10-31T07:46:08;25.30;;;12.10;;
69434;SDS011;56625;54.322;18.582;2022-10-31T07:48:35;27.40;;;13.70;;
69434;SDS011;56625;54.322;18.582;2022-10-31T07:51:01;24.20;;;11.10;;
69434;SDS011;56625;54.322;18.582;2022-10-31T07:53:27;27.90;;;12.80;;
69434;SDS011;56625;54.322;18.582;2022-10-31T07:55:54;22.40;;;10.60;;
69434;SDS011;56625;54.322;18.582;2022-10-31T07:58:20;23.80;;;11.10;;
69434;SDS011;56625;54.322;18.582;2022-10-31T08:00:47;23.20;;;10.40;;
69434;SDS011;56625;54.322;18.582;2022-10-31T08:03:16;23.00;;;11.10;;
69434;SDS011;56625;54.322;18.582;2022-10-31T08:05:44;26.20;;;12.40;;
69434;SDS011;56625;54.322;18.582;2022-10-31T08:08:13;26.40;;;12.80;;
69434;SDS011;56625;54.322;18.582;2022-10-31T08:10:40;23.80;;;11.60;;
69434;SDS011;56625;54.322;18.582;2022-10-31T08:13:09;26.40;;;12.20;;
69434;SDS011;56625;54.322;18.582;2022-10-31T08:15:37;26.00;;;12.50;;
69434;SDS011;56625;54.322;18.582;2022-10-31T08:18:12;25.80;;;11.90;;
69434;SDS011;56625;54.322;18.582;2022-10-31T08:20:43;28.10;;;12.70;;
69434;SDS011;56625;54.322;18.582;2022-10-31T08:23:11;26.30;;;12.60;;
69434;SDS011;56625;54.322;18.582;2022-10-31T08:25:39;27.10;;;13.10;;
69434;SDS011;56625;54.322;18.582;2022-10-31T08:28:06;31.60;;;15.30;;
69434;SDS011;56625;54.322;18.582;2022-10-31T08:30:36;30.60;;;14.60;;
69434;SDS011;56625;54.322;18.582;2022-10-31T08:33:12;31.20;;;14.30;;
69434;SDS011;56625;54.322;18.582;2022-10-31T08:35:40;31.50;;;14.80;;
69434;SDS011;56625;54.322;18.582;2022-10-31T08:38:12;30.50;;;13.80;;
69434;SDS011;56625;54.322;18.582;2022-10-31T08:40:39;31.60;;;14.30;;
69434;SDS011;56625;54.322;18.582;2022-10-31T08:43:11;29.40;;;13.20;;
69434;SDS011;56625;54.322;18.582;2022-10-31T08:45:39;25.60;;;12.90;;
69434;SDS011;56625;54.322;18.582;2022-10-31T08:48:09;29.40;;;14.10;;
69434;SDS011;56625;54.322;18.582;2022-10-31T08:50:38;27.30;;;13.80;;
69434;SDS011;56625;54.322;18.582;2022-10-31T08:53:10;25.10;;;12.50;;
69434;SDS011;56625;54.322;18.582;2022-10-31T08:55:42;32.40;;;15.00;;
69434;SDS011;56625;54.322;18.582;2022-10-31T08:58:16;31.50;;;13.90;;
69434;SDS011;56625;54.322;18.582;2022-10-31T09:00:45;30.00;;;14.40;;
69434;SDS011;56625;54.322;18.582;2022-10-31T09:03:15;27.80;;;13.10;;
69434;SDS011;56625;54.322;18.582;2022-10-31T09:05:44;31.30;;;14.40;;
69434;SDS011;56625;54.322;18.582;2022-10-31T09:08:14;31.80;;;14.70;;
69434;SDS011;56625;54.322;18.582;2022-10-31T09:10:43;27.50;;;13.40;;
69434;SDS011;56625;54.322;18.582;2022-10-31T09:13:15;32.40;;;15.20;;
69434;SDS011;56625;54.322;18.582;2022-10-31T09:15:45;31.20;;;15.00;;
69434;SDS011;56625;54.322;18.582;2022-10-31T09:18:17;32.10;;;15.50;;
69434;SDS011;56625;54.322;18.582;2022-10-31T09:20:47;33.20;;;15.80;;
69434;SDS011;56625;54.322;18.582;2022-10-31T09:23:20;33.50;;;15.40;;
69434;SDS011;56625;54.322;18.582;2022-10-31T09:25:49;35.30;;;16.10;;
69434;SDS011;56625;54.322;18.582;2022-10-31T09:28:21;32.40;;;15.40;;
69434;SDS011;56625;54.322;18.582;2022-10-31T09:30:51;33.60;;;16.70;;
69434;SDS011;56625;54.322;18.582;2022-10-31T09:33:20;36.10;;;16.90;;
69434;SDS011;56625;54.322;18.582;2022-10-31T09:35:47;32.30;;;15.70;;
69434;SDS011;56625;54.322;18.582;2022-10-31T09:38:19;35.10;;;15.70;;
69434;SDS011;56625;54.322;18.582;2022-10-31T09:40:49;33.10;;;15.30;;
69434;SDS011;56625;54.322;18.582;2022-10-31T09:43:46;30.40;;;14.00;;
69434;SDS011;56625;54.322;18.582;2022-10-31T09:49:42;42.40;;;17.80;;
69434;SDS011;56625;54.322;18.582;2022-10-31T09:52:33;34.90;;;15.30;;
69434;SDS011;56625;54.322;18.582;2022-10-31T09:55:06;35.10;;;14.80;;
69434;SDS011;56625;54.322;18.582;2022-10-31T09:57:41;33.00;;;14.50;;
69434;SDS011;56625;54.322;18.582;2022-10-31T10:00:18;33.70;;;13.80;;
69434;SDS011;56625;54.322;18.582;2022-10-31T10:06:13;38.10;;;15.20;;
69434;SDS011;56625;54.322;18.582;2022-10-31T10:08:43;33.50;;;14.20;;
69434;SDS011;56625;54.322;18.582;2022-10-31T10:14:15;36.20;;;14.90;;
69434;SDS011;56625;54.322;18.582;2022-10-31T10:20:14;33.80;;;14.90;;
69434;SDS011;56625;54.322;18.582;2022-10-31T10:23:18;38.90;;;15.90;;
69434;SDS011;56625;54.322;18.582;2022-10-31T10:25:54;37.20;;;15.70;;
69434;SDS011;56625;54.322;18.582;2022-10-31T10:28:37;37.50;;;15.90;;
69434;SDS011;56625;54.322;18.582;2022-10-31T10:31:17;34.10;;;16.10;;
69434;SDS011;56625;54.322;18.582;2022-10-31T10:34:06;35.20;;;16.10;;
69434;SDS011;56625;54.322;18.582;2022-10-31T10:36:51;35.70;;;14.30;;
69434;SDS011;56625;54.322;18.582;2022-10-31T10:40:18;36.80;;;14.50;;
69434;SDS011;56625;54.322;18.582;2022-10-31T10:43:16;34.90;;;13.90;;
69434;SDS011;56625;54.322;18.582;2022-10-31T10:45:59;34.90;;;14.70;;
69434;SDS011;56625;54.322;18.582;2022-10-31T10:52:11;35.40;;;15.40;;
69434;SDS011;56625;54.322;18.582;2022-10-31T10:55:39;35.70;;;14.00;;
69434;SDS011;56625;54.322;18.582;2022-10-31T10:58:16;38.10;;;14.80;;
69434;SDS011;56625;54.322;18.582;2022-10-31T11:00:44;35.10;;;14.30;;
69434;SDS011;56625;54.322;18.582;2022-10-31T11:03:14;37.10;;;14.90;;
69434;SDS011;56625;54.322;18.582;2022-10-31T11:05:56;36.00;;;14.80;;
69434;SDS011;56625;54.322;18.582;2022-10-31T11:08:33;36.00;;;14.70;;
69434;SDS011;56625;54.322;18.582;2022-10-31T11:11:30;34.80;;;15.20;;
69434;SDS011;56625;54.322;18.582;2022-10-31T11:14:12;36.20;;;15.50;;
69434;SDS011;56625;54.322;18.582;2022-10-31T11:16:47;35.50;;;15.00;;
69434;SDS011;56625;54.322;18.582;2022-10-31T11:19:35;34.50;;;14.20;;
69434;SDS011;56625;54.322;18.582;2022-10-31T11:22:20;32.60;;;13.70;;
69434;SDS011;56625;54.322;18.582;2022-10-31T11:24:50;29.90;;;13.40;;
69434;SDS011;56625;54.322;18.582;2022-10-31T11:27:21;27.40;;;12.10;;
69434;SDS011;56625;54.322;18.582;2022-10-31T11:29:49;27.70;;;12.10;;
69434;SDS011;56625;54.322;18.582;2022-10-31T11:32:22;25.50;;;11.70;;
69434;SDS011;56625;54.322;18.582;2022-10-31T11:34:53;25.00;;;11.70;;
69434;SDS011;56625;54.322;18.582;2022-10-31T11:37:26;26.90;;;11.50;;
69434;SDS011;56625;54.322;18.582;2022-10-31T11:40:05;24.30;;;11.30;;
69434;SDS011;56625;54.322;18.582;2022-10-31T11:42:38;27.70;;;12.20;;
69434;SDS011;56625;54.322;18.582;2022-10-31T11:47:54;23.40;;;11.00;;
69434;SDS011;56625;54.322;18.582;2022-10-31T11:50:27;26.80;;;11.40;;
69434;SDS011;56625;54.322;18.582;2022-10-31T11:53:04;22.40;;;10.70;;
69434;SDS011;56625;54.322;18.582;2022-10-31T11:55:39;22.70;;;10.30;;
69434;SDS011;56625;54.322;18.582;2022-10-31T11:58:21;22.80;;;10.70;;
69434;SDS011;56625;54.322;18.582;2022-10-31T12:00:52;25.40;;;10.50;;
69434;SDS011;56625;54.322;18.582;2022-10-31T12:08:01;21.90;;;10.60;;
69434;SDS011;56625;54.322;18.582;2022-10-31T12:10:51;24.40;;;11.70;;
69434;SDS011;56625;54.322;18.582;2022-10-31T12:14:24;22.30;;;11.00;;
69434;SDS011;56625;54.322;18.582;2022-10-31T12:17:15;20.90;;;9.40;;
69434;SDS011;56625;54.322;18.582;2022-10-31T12:26:54;19.30;;;10.00;;
69434;SDS011;56625;54.322;18.582;2022-10-31T12:29:31;19.90;;;9.90;;
69434;SDS011;56625;54.322;18.582;2022-10-31T12:35:36;21.90;;;10.30;;
69434;SDS011;56625;54.322;18.582;2022-10-31T12:42:00;19.90;;;10.40;;
69434;SDS011;56625;54.322;18.582;2022-10-31T12:50:34;20.50;;;10.00;;
69434;SDS011;56625;54.322;18.582;2022-10-31T12:54:07;22.40;;;10.90;;
69434;SDS011;56625;54.322;18.582;2022-10-31T12:56:51;20.90;;;10.40;;
69434;SDS011;56625;54.322;18.582;2022-10-31T12:59:43;20.60;;;10.20;;
69434;SDS011;56625;54.322;18.582;2022-10-31T13:04:55;20.00;;;10.50;;
69434;SDS011;56625;54.322;18.582;2022-10-31T13:07:36;19.90;;;10.70;;
69434;SDS011;56625;54.322;18.582;2022-10-31T13:10:49;23.00;;;11.00;;
69434;SDS011;56625;54.322;18.582;2022-10-31T13:16:34;28.70;;;14.10;;
69434;SDS011;56625;54.322;18.582;2022-10-31T13:19:19;25.60;;;13.40;;
69434;SDS011;56625;54.322;18.582;2022-10-31T13:22:05;26.30;;;11.20;;
69434;SDS011;56625;54.322;18.582;2022-10-31T13:24:55;25.60;;;12.60;;
69434;SDS011;56625;54.322;18.582;2022-10-31T13:27:43;26.60;;;13.00;;
69434;SDS011;56625;54.322;18.582;2022-10-31T13:30:19;27.40;;;12.40;;
69434;SDS011;56625;54.322;18.582;2022-10-31T13:35:40;24.10;;;11.40;;
69434;SDS011;56625;54.322;18.582;2022-10-31T13:44:29;25.80;;;12.10;;
69434;SDS011;56625;54.322;18.582;2022-10-31T13:47:21;22.20;;;11.30;;
69434;SDS011;56625;54.322;18.582;2022-10-31T13:50:27;25.40;;;12.00;;
69434;SDS011;56625;54.322;18.582;2022-10-31T13:53:22;28.40;;;13.10;;
69434;SDS011;56625;54.322;18.582;2022-10-31T13:58:34;27.10;;;12.40;;
69434;SDS011;56625;54.322;18.582;2022-10-31T14:03:38;24.10;;;11.40;;
69434;SDS011;56625;54.322;18.582;2022-10-31T14:07:14;22.80;;;11.30;;
69434;SDS011;56625;54.322;18.582;2022-10-31T14:10:00;24.50;;;11.70;;
69434;SDS011;56625;54.322;18.582;2022-10-31T14:12:35;24.90;;;11.20;;
69434;SDS011;56625;54.322;18.582;2022-10-31T14:17:51;25.20;;;10.80;;
69434;SDS011;56625;54.322;18.582;2022-10-31T14:20:24;25.30;;;12.70;;
69434;SDS011;56625;54.322;18.582;2022-10-31T14:23:28;24.20;;;11.80;;
69434;SDS011;56625;54.322;18.582;2022-10-31T14:28:54;23.60;;;11.30;;
69434;SDS011;56625;54.322;18.582;2022-10-31T14:37:21;24.10;;;11.40;;
69434;SDS011;56625;54.322;18.582;2022-10-31T14:45:59;26.10;;;11.90;;
69434;SDS011;56625;54.322;18.582;2022-10-31T14:51:39;23.40;;;10.80;;
69434;SDS011;56625;54.322;18.582;2022-10-31T14:54:14;21.10;;;10.90;;
69434;SDS011;56625;54.322;18.582;2022-10-31T14:56:55;22.10;;;11.00;;
69434;SDS011;56625;54.322;18.582;2022-10-31T14:59:30;22.50;;;10.70;;
69434;SDS011;56625;54.322;18.582;2022-10-31T15:02:02;23.50;;;10.90;;
69434;SDS011;56625;54.322;18.582;2022-10-31T15:04:38;26.80;;;10.80;;
69434;SDS011;56625;54.322;18.582;2022-10-31T15:07:16;22.80;;;10.70;;
69434;SDS011;56625;54.322;18.582;2022-10-31T15:10:19;20.20;;;9.90;;
69434;SDS011;56625;54.322;18.582;2022-10-31T15:12:48;25.40;;;11.30;;
69434;SDS011;56625;54.322;18.582;2022-10-31T15:15:20;25.70;;;12.40;;
69434;SDS011;56625;54.322;18.582;2022-10-31T15:17:59;22.30;;;11.30;;
69434;SDS011;56625;54.322;18.582;2022-10-31T15:20:33;23.10;;;10.30;;
69434;SDS011;56625;54.322;18.582;2022-10-31T15:23:11;25.00;;;11.40;;
69434;SDS011;56625;54.322;18.582;2022-10-31T15:25:42;24.40;;;11.60;;
69434;SDS011;56625;54.322;18.582;2022-10-31T15:28:14;25.20;;;11.80;;
69434;SDS011;56625;54.322;18.582;2022-10-31T15:30:50;26.00;;;11.80;;
69434;SDS011;56625;54.322;18.582;2022-10-31T15:33:39;22.40;;;10.80;;
69434;SDS011;56625;54.322;18.582;2022-10-31T15:36:22;21.60;;;10.60;;
69434;SDS011;56625;54.322;18.582;2022-10-31T15:38:55;21.60;;;10.40;;
69434;SDS011;56625;54.322;18.582;2022-10-31T15:44:02;18.80;;;9.60;;
69434;SDS011;56625;54.322;18.582;2022-10-31T15:46:33;19.00;;;9.90;;
69434;SDS011;56625;54.322;18.582;2022-10-31T15:49:00;22.30;;;10.10;;
69434;SDS011;56625;54.322;18.582;2022-10-31T15:51:32;22.40;;;9.10;;
69434;SDS011;56625;54.322;18.582;2022-10-31T15:54:00;17.60;;;7.80;;
69434;SDS011;56625;54.322;18.582;2022-10-31T15:56:30;18.20;;;8.20;;
69434;SDS011;56625;54.322;18.582;2022-10-31T15:58:58;21.40;;;8.50;;
69434;SDS011;56625;54.322;18.582;2022-10-31T16:01:32;17.80;;;8.50;;
69434;SDS011;56625;54.322;18.582;2022-10-31T16:04:04;17.80;;;9.00;;
69434;SDS011;56625;54.322;18.582;2022-10-31T16:06:59;20.40;;;9.70;;
69434;SDS011;56625;54.322;18.582;2022-10-31T16:09:51;19.40;;;8.90;;
69434;SDS011;56625;54.322;18.582;2022-10-31T16:12:22;21.00;;;9.00;;
69434;SDS011;56625;54.322;18.582;2022-10-31T16:14:51;20.50;;;9.40;;
69434;SDS011;56625;54.322;18.582;2022-10-31T16:17:21;20.00;;;9.10;;
69434;SDS011;56625;54.322;18.582;2022-10-31T16:22:29;22.40;;;9.30;;
69434;SDS011;56625;54.322;18.582;2022-10-31T16:25:11;20.00;;;9.80;;
69434;SDS011;56625;54.322;18.582;2022-10-31T16:28:03;21.10;;;9.70;;
69434;SDS011;56625;54.322;18.582;2022-10-31T16:30:46;21.70;;;9.40;;
69434;SDS011;56625;54.322;18.582;2022-10-31T16:33:26;22.60;;;9.70;;
69434;SDS011;56625;54.322;18.582;2022-10-31T16:35:56;21.60;;;9.00;;
69434;SDS011;56625;54.322;18.582;2022-10-31T16:38:44;22.20;;;9.10;;